Independence of the Seas — C6WW4 — position and weather

sailwx.info

Track history (hours):
 
Tides and Currents Weather Stations Pressure Air Temp Water Temp Dewpoint Dewpoint Depression Visibility Wind Speed Wind Dir Waves Ship Positions

Independence of the Seas

Last reported at 2016-Aug-30 01:33 UTC. Time now 2016-Aug-30 09:07 UTC.
Position N 36°14' W 007°48'.

Length 339 m; draft 8.8 m.

Type: Passenger vessel. MMSI: 309374000.

Date/timePositionNaut miles runAvg speedWind from/ knotsBaromVisibWave heightAir tempDewpointWater temp
2016-Aug-30 01:33N 36°14' W 007°48'3818.9
2016-Aug-29 23:33N 36°24' W 008°33'1919.0
2016-Aug-29 22:33N 36°29' W 008°56'1918.9
2016-Aug-29 21:33N 36°36' W 009°19'1918.9
2016-Aug-29 20:33N 36°50' W 009°33'1919.1
2016-Aug-29 19:33N 37°09' W 009°39'1919.5
2016-Aug-29 18:34N 37°28' W 009°44'2019.6
2016-Aug-29 17:33N 37°47' W 009°50'1919.5
2016-Aug-29 16:33N 38°06' W 009°55'2019.5
2016-Aug-29 15:33N 38°25' W 010°01'1919.1
2016-Aug-29 14:33N 38°44' W 010°06'1919.2
2016-Aug-29 13:33N 39°03' W 010°05'2019.2
2016-Aug-29 12:30N 39°23' W 010°06'68718.5
2016-Aug-27 23:22N 49°48' W 003°25'1619.6
2016-Aug-27 22:33N 49°56' W 003°04'1918.9
2016-Aug-27 21:33N 50°03' W 002°37'5818.6
2016-Aug-27 18:26N 50°29' W 001°16'1515.5
2016-Aug-27 17:27N 50°39' W 000°58'1213.0
2016-Aug-27 16:34N 50°46' W 001°13'1010.0
2016-Aug-27 15:33N 50°53' W 001°24'1 0.1
2016-Aug-27 04:08N 50°54' W 001°25'4 6.0
2016-Aug-27 03:31N 50°51' W 001°21'9 8.9
2016-Aug-27 02:33N 50°46' W 001°11'1211.6
2016-Aug-27 01:33N 50°37' W 000°59'1716.7
2016-Aug-27 00:33N 50°24' W 001°16'1815.8
2016-Aug-26 23:23N 50°13' W 001°39'1113.3
2016-Aug-26 22:33N 50°08' W 001°54'1313.0
2016-Aug-26 21:33N 50°01' W 002°11'1212.3
2016-Aug-26 20:33N 49°56' W 002°29'1312.6
2016-Aug-26 19:33N 49°53' W 002°47'1313.1
2016-Aug-26 18:33N 49°47' W 003°06'1313.4
2016-Aug-26 17:33N 49°39' W 003°23'1613.6
2016-Aug-26 16:23N 49°31' W 003°44'1413.8
2016-Aug-26 15:23N 49°23' W 004°02'1414.0
2016-Aug-26 14:23N 49°15' W 004°19'4616.0
2016-Aug-26 11:30N 48°52' W 005°20'1616.6
2016-Aug-26 10:33N 48°42' W 005°38'1818.3
2016-Aug-26 09:33N 48°26' W 005°51'3718.2
2016-Aug-26 07:30N 47°53' W 006°17'1718.3
2016-Aug-26 06:33N 47°37' W 006°29'3818.0
2016-Aug-26 04:26N 47°03' W 006°55'42916.6
2016-Aug-25 02:31N 40°13' W 009°51'6717.0
2016-Aug-24 22:33N 39°06' W 009°52'1616.6
2016-Aug-24 21:33N 38°50' W 009°51'1615.5
2016-Aug-24 20:33N 38°35' W 009°43'1717.1
2016-Aug-24 19:33N 38°38' W 009°22'1211.8
2016-Aug-24 18:33N 38°42' W 009°08'0 0.5
2016-Aug-24 17:33N 38°43' W 009°08'0 0.0
2016-Aug-24 16:33N 38°43' W 009°07'0 0.0
2016-Aug-24 15:33N 38°43' W 009°08'0 0.0
2016-Aug-24 14:33N 38°43' W 009°08'0 0.0
2016-Aug-24 13:34N 38°43' W 009°08'0 0.0
2016-Aug-24 12:33N 38°43' W 009°08'0 0.0
2016-Aug-24 11:33N 38°43' W 009°08'1 0.6
2016-Aug-24 10:34N 38°42' W 009°08'1110.6
2016-Aug-24 09:33N 38°39' W 009°21'1615.8
2016-Aug-24 08:33N 38°23' W 009°25'2020.0
2016-Aug-24 07:33N 38°03' W 009°24'2019.9
2016-Aug-24 06:33N 37°43' W 009°24'4019.9
2016-Aug-24 04:33N 37°03' W 009°21'1919.0
2016-Aug-24 03:32N 36°46' W 009°11'8319.9
2016-Aug-23 23:21N 36°18' W 007°33'1620.0
2016-Aug-23 22:33N 36°14' W 007°14'8319.3
2016-Aug-23 18:15N 35°59' W 005°33'1318.4
2016-Aug-23 17:33N 36°03' W 005°18'132 8.1
2016-Aug-23 01:13N 36°27' W 002°37'11617.1
2016-Aug-22 18:26N 37°32' W 000°36'1517.5
2016-Aug-22 17:33N 37°43' W 000°22'13717.2
2016-Aug-22 09:33N 39°27' E 001°33'1917.3
2016-Aug-22 08:28N 39°40' E 001°50'1617.0
2016-Aug-22 07:33N 39°52' E 002°04'1717.1
2016-Aug-22 06:33N 40°04' E 002°19'1717.4
2016-Aug-22 05:33N 40°17' E 002°35'1818.0
2016-Aug-22 04:33N 40°30' E 002°51'1817.8
2016-Aug-22 03:33N 40°43' E 003°07'1917.8
2016-Aug-22 02:31N 40°56' E 003°24'17217.1
2016-Aug-21 16:30N 43°05' E 005°56'2 1.9
2016-Aug-21 15:33N 43°06' E 005°54'0 0.0
2016-Aug-21 14:33N 43°06' E 005°54'0 0.0
2016-Aug-21 13:30N 43°06' E 005°54'0 0.0
2016-Aug-21 11:06N 43°06' E 005°54'0 0.0
2016-Aug-21 10:18N 43°06' E 005°54'0 0.0
2016-Aug-21 09:30N 43°06' E 005°54'0 0.0
2016-Aug-21 08:27N 43°06' E 005°54'0 0.0
2016-Aug-21 07:09N 43°06' E 005°54'1 1.6
2016-Aug-21 06:33N 43°06' E 005°55'9213.0
2016-Aug-20 23:30N 43°04' E 008°01'5117.4
2016-Aug-20 20:33N 43°20' E 009°08'1717.4
2016-Aug-20 19:34N 43°25' E 009°30'1717.5
2016-Aug-20 18:34N 43°31' E 009°53'1515.0
2016-Aug-20 17:33N 43°31' E 010°14'3 3.3
2016-Aug-20 16:33N 43°33' E 010°18'0 0.0
2016-Aug-20 15:33N 43°33' E 010°18'0 0.0
2016-Aug-20 14:33N 43°33' E 010°18'0 0.0
2016-Aug-20 13:30N 43°33' E 010°18'0 0.0
2016-Aug-20 12:33N 43°33' E 010°18'0 0.0
2016-Aug-20 11:33N 43°33' E 010°18'0 0.0
2016-Aug-20 10:33N 43°33' E 010°18'0 0.0
2016-Aug-20 09:33N 43°33' E 010°18'0 0.0
2016-Aug-20 08:33N 43°33' E 010°18'0 0.0
2016-Aug-20 07:33N 43°33' E 010°18'0 0.0
2016-Aug-20 06:33N 43°33' E 010°18'0 0.0
2016-Aug-20 05:30N 43°33' E 010°18'0 0.2
2016-Aug-20 04:34N 43°33' E 010°18'1010.4
2016-Aug-20 03:33N 43°24' E 010°12'1413.8
2016-Aug-20 02:33N 43°10' E 010°08'1414.1
2016-Aug-20 01:34N 42°57' E 010°04'  
Track history (hours):
 
Tides and Currents Weather Stations Pressure Air Temp Water Temp Dewpoint Dewpoint Depression Visibility Wind Speed Wind Dir Waves Ship Positions

Independence of the Seas

Last reported at 2016-Aug-30 01:33 UTC. Time now 2016-Aug-30 09:07 UTC.
Position N 36°14' W 007°48'.

Length 339 m; draft 8.8 m.

Type: Passenger vessel. MMSI: 309374000.

Date/timePositionNaut miles runAvg speedWind from/ knotsBaromVisibWave heightAir tempDewpointWater temp
2016-Aug-30 01:33N 36°14' W 007°48'3818.9
2016-Aug-29 23:33N 36°24' W 008°33'1919.0
2016-Aug-29 22:33N 36°29' W 008°56'1918.9
2016-Aug-29 21:33N 36°36' W 009°19'1918.9
2016-Aug-29 20:33N 36°50' W 009°33'1919.1
2016-Aug-29 19:33N 37°09' W 009°39'1919.5
2016-Aug-29 18:34N 37°28' W 009°44'2019.6
2016-Aug-29 17:33N 37°47' W 009°50'1919.5
2016-Aug-29 16:33N 38°06' W 009°55'2019.5
2016-Aug-29 15:33N 38°25' W 010°01'1919.1
2016-Aug-29 14:33N 38°44' W 010°06'1919.2
2016-Aug-29 13:33N 39°03' W 010°05'2019.2
2016-Aug-29 12:30N 39°23' W 010°06'68718.5
2016-Aug-27 23:22N 49°48' W 003°25'1619.6
2016-Aug-27 22:33N 49°56' W 003°04'1918.9
2016-Aug-27 21:33N 50°03' W 002°37'5818.6
2016-Aug-27 18:26N 50°29' W 001°16'1515.5
2016-Aug-27 17:27N 50°39' W 000°58'1213.0
2016-Aug-27 16:34N 50°46' W 001°13'1010.0
2016-Aug-27 15:33N 50°53' W 001°24'1 0.1
2016-Aug-27 04:08N 50°54' W 001°25'4 6.0
2016-Aug-27 03:31N 50°51' W 001°21'9 8.9
2016-Aug-27 02:33N 50°46' W 001°11'1211.6
2016-Aug-27 01:33N 50°37' W 000°59'1716.7
2016-Aug-27 00:33N 50°24' W 001°16'1815.8
2016-Aug-26 23:23N 50°13' W 001°39'1113.3
2016-Aug-26 22:33N 50°08' W 001°54'1313.0
2016-Aug-26 21:33N 50°01' W 002°11'1212.3
2016-Aug-26 20:33N 49°56' W 002°29'1312.6
2016-Aug-26 19:33N 49°53' W 002°47'1313.1
2016-Aug-26 18:33N 49°47' W 003°06'1313.4
2016-Aug-26 17:33N 49°39' W 003°23'1613.6
2016-Aug-26 16:23N 49°31' W 003°44'1413.8
2016-Aug-26 15:23N 49°23' W 004°02'1414.0
2016-Aug-26 14:23N 49°15' W 004°19'4616.0
2016-Aug-26 11:30N 48°52' W 005°20'1616.6
2016-Aug-26 10:33N 48°42' W 005°38'1818.3
2016-Aug-26 09:33N 48°26' W 005°51'3718.2
2016-Aug-26 07:30N 47°53' W 006°17'1718.3
2016-Aug-26 06:33N 47°37' W 006°29'3818.0
2016-Aug-26 04:26N 47°03' W 006°55'42916.6
2016-Aug-25 02:31N 40°13' W 009°51'6717.0
2016-Aug-24 22:33N 39°06' W 009°52'1616.6
2016-Aug-24 21:33N 38°50' W 009°51'1615.5
2016-Aug-24 20:33N 38°35' W 009°43'1717.1
2016-Aug-24 19:33N 38°38' W 009°22'1211.8
2016-Aug-24 18:33N 38°42' W 009°08'0 0.5
2016-Aug-24 17:33N 38°43' W 009°08'0 0.0
2016-Aug-24 16:33N 38°43' W 009°07'0 0.0
2016-Aug-24 15:33N 38°43' W 009°08'0 0.0
2016-Aug-24 14:33N 38°43' W 009°08'0 0.0
2016-Aug-24 13:34N 38°43' W 009°08'0 0.0
2016-Aug-24 12:33N 38°43' W 009°08'0 0.0
2016-Aug-24 11:33N 38°43' W 009°08'1 0.6
2016-Aug-24 10:34N 38°42' W 009°08'1110.6
2016-Aug-24 09:33N 38°39' W 009°21'1615.8
2016-Aug-24 08:33N 38°23' W 009°25'2020.0
2016-Aug-24 07:33N 38°03' W 009°24'2019.9
2016-Aug-24 06:33N 37°43' W 009°24'4019.9
2016-Aug-24 04:33N 37°03' W 009°21'1919.0
2016-Aug-24 03:32N 36°46' W 009°11'8319.9
2016-Aug-23 23:21N 36°18' W 007°33'1620.0
2016-Aug-23 22:33N 36°14' W 007°14'8319.3
2016-Aug-23 18:15N 35°59' W 005°33'1318.4
2016-Aug-23 17:33N 36°03' W 005°18'132 8.1
2016-Aug-23 01:13N 36°27' W 002°37'11617.1
2016-Aug-22 18:26N 37°32' W 000°36'1517.5
2016-Aug-22 17:33N 37°43' W 000°22'13717.2
2016-Aug-22 09:33N 39°27' E 001°33'1917.3
2016-Aug-22 08:28N 39°40' E 001°50'1617.0
2016-Aug-22 07:33N 39°52' E 002°04'1717.1
2016-Aug-22 06:33N 40°04' E 002°19'1717.4
2016-Aug-22 05:33N 40°17' E 002°35'1818.0
2016-Aug-22 04:33N 40°30' E 002°51'1817.8
2016-Aug-22 03:33N 40°43' E 003°07'1917.8
2016-Aug-22 02:31N 40°56' E 003°24'17217.1
2016-Aug-21 16:30N 43°05' E 005°56'2 1.9
2016-Aug-21 15:33N 43°06' E 005°54'0 0.0
2016-Aug-21 14:33N 43°06' E 005°54'0 0.0
2016-Aug-21 13:30N 43°06' E 005°54'0 0.0
2016-Aug-21 11:06N 43°06' E 005°54'0 0.0
2016-Aug-21 10:18N 43°06' E 005°54'0 0.0
2016-Aug-21 09:30N 43°06' E 005°54'0 0.0
2016-Aug-21 08:27N 43°06' E 005°54'0 0.0
2016-Aug-21 07:09N 43°06' E 005°54'1 1.6
2016-Aug-21 06:33N 43°06' E 005°55'9213.0
2016-Aug-20 23:30N 43°04' E 008°01'5117.4
2016-Aug-20 20:33N 43°20' E 009°08'1717.4
2016-Aug-20 19:34N 43°25' E 009°30'1717.5
2016-Aug-20 18:34N 43°31' E 009°53'1515.0
2016-Aug-20 17:33N 43°31' E 010°14'3 3.3
2016-Aug-20 16:33N 43°33' E 010°18'0 0.0
2016-Aug-20 15:33N 43°33' E 010°18'0 0.0
2016-Aug-20 14:33N 43°33' E 010°18'0 0.0
2016-Aug-20 13:30N 43°33' E 010°18'0 0.0
2016-Aug-20 12:33N 43°33' E 010°18'0 0.0
2016-Aug-20 11:33N 43°33' E 010°18'0 0.0
2016-Aug-20 10:33N 43°33' E 010°18'0 0.0
2016-Aug-20 09:33N 43°33' E 010°18'0 0.0
2016-Aug-20 08:33N 43°33' E 010°18'0 0.0
2016-Aug-20 07:33N 43°33' E 010°18'0 0.0
2016-Aug-20 06:33N 43°33' E 010°18'0 0.0
2016-Aug-20 05:30N 43°33' E 010°18'0 0.2
2016-Aug-20 04:34N 43°33' E 010°18'1010.4
2016-Aug-20 03:33N 43°24' E 010°12'1413.8
2016-Aug-20 02:33N 43°10' E 010°08'1414.1
2016-Aug-20 01:34N 42°57' E 010°04'  

Dump ship's entire track history